sensor_id;sensor_type;location;lat;lon;timestamp;pressure;altitude;pressure_sealevel;temperature;humidity
68948;BME280;55996;49.546;7.400;2024-03-25T00:02:06;-19603.09;;;5.69;100.00
68948;BME280;55996;49.546;7.400;2024-03-25T00:04:32;-19597.56;;;5.47;100.00
68948;BME280;55996;49.546;7.400;2024-03-25T00:06:57;-19597.16;;;5.46;100.00
68948;BME280;55996;49.546;7.400;2024-03-25T00:09:23;-19596.19;;;5.42;100.00
68948;BME280;55996;49.546;7.400;2024-03-25T00:11:49;-19592.00;;;5.26;100.00
68948;BME280;55996;49.546;7.400;2024-03-25T00:14:20;-19590.09;;;5.19;100.00
68948;BME280;55996;49.546;7.400;2024-03-25T00:16:45;-19589.97;;;5.19;100.00
68948;BME280;55996;49.546;7.400;2024-03-25T00:19:10;-19587.53;;;5.09;100.00
68948;BME280;55996;49.546;7.400;2024-03-25T00:21:35;-19589.41;;;5.16;100.00
68948;BME280;55996;49.546;7.400;2024-03-25T00:24:01;-19589.81;;;5.18;100.00
68948;BME280;55996;49.546;7.400;2024-03-25T00:26:26;-19588.34;;;5.12;100.00
68948;BME280;55996;49.546;7.400;2024-03-25T00:28:52;-19587.53;;;5.09;100.00
68948;BME280;55996;49.546;7.400;2024-03-25T00:31:17;-19585.63;;;5.02;100.00
68948;BME280;55996;49.546;7.400;2024-03-25T00:33:42;-19585.91;;;5.03;100.00
68948;BME280;55996;49.546;7.400;2024-03-25T00:36:08;-19585.91;;;5.03;100.00
68948;BME280;55996;49.546;7.400;2024-03-25T00:38:33;-19586.16;;;5.04;100.00
68948;BME280;55996;49.546;7.400;2024-03-25T00:40:58;-19584.00;;;4.96;100.00
68948;BME280;55996;49.546;7.400;2024-03-25T00:43:24;-19582.91;;;4.92;100.00
68948;BME280;55996;49.546;7.400;2024-03-25T00:45:49;-19580.34;;;4.82;100.00
68948;BME280;55996;49.546;7.400;2024-03-25T00:48:14;-19580.75;;;4.83;100.00
68948;BME280;55996;49.546;7.400;2024-03-25T00:50:40;-19577.75;;;4.72;100.00
68948;BME280;55996;49.546;7.400;2024-03-25T00:53:05;-19574.91;;;4.61;100.00
68948;BME280;55996;49.546;7.400;2024-03-25T00:55:33;-19571.66;;;4.49;100.00
68948;BME280;55996;49.546;7.400;2024-03-25T00:57:58;-19569.91;;;4.42;100.00
68948;BME280;55996;49.546;7.400;2024-03-25T01:00:23;-19567.72;;;4.34;100.00
68948;BME280;55996;49.546;7.400;2024-03-25T01:02:49;-19561.22;;;4.09;100.00
68948;BME280;55996;49.546;7.400;2024-03-25T01:05:14;-19560.53;;;4.07;100.00
68948;BME280;55996;49.546;7.400;2024-03-25T01:07:40;-19557.94;;;3.97;100.00
68948;BME280;55996;49.546;7.400;2024-03-25T01:10:05;-19555.50;;;3.87;100.00
68948;BME280;55996;49.546;7.400;2024-03-25T01:12:31;-19552.25;;;3.75;100.00
68948;BME280;55996;49.546;7.400;2024-03-25T01:14:57;-19551.16;;;3.71;100.00
68948;BME280;55996;49.546;7.400;2024-03-25T01:17:22;-19547.38;;;3.57;100.00
68948;BME280;55996;49.546;7.400;2024-03-25T01:19:48;-19545.75;;;3.50;100.00
68948;BME280;55996;49.546;7.400;2024-03-25T01:22:13;-19535.97;;;3.13;100.00
68948;BME280;55996;49.546;7.400;2024-03-25T01:24:39;-19542.47;;;3.38;100.00
68948;BME280;55996;49.546;7.400;2024-03-25T01:27:05;-19538.94;;;3.25;100.00
68948;BME280;55996;49.546;7.400;2024-03-25T01:29:30;-19538.94;;;3.25;100.00
68948;BME280;55996;49.546;7.400;2024-03-25T01:31:56;-19530.25;;;2.92;100.00
68948;BME280;55996;49.546;7.400;2024-03-25T01:34:26;-19530.78;;;2.94;100.00
68948;BME280;55996;49.546;7.400;2024-03-25T01:36:51;-19536.22;;;3.14;100.00
68948;BME280;55996;49.546;7.400;2024-03-25T01:39:17;-19531.06;;;2.95;100.00
68948;BME280;55996;49.546;7.400;2024-03-25T01:41:43;-19534.59;;;3.08;100.00
68948;BME280;55996;49.546;7.400;2024-03-25T01:44:08;-19526.59;;;2.78;100.00
68948;BME280;55996;49.546;7.400;2024-03-25T01:46:34;-19529.56;;;2.89;100.00
68948;BME280;55996;49.546;7.400;2024-03-25T01:49:00;-19529.16;;;2.87;100.00
68948;BME280;55996;49.546;7.400;2024-03-25T01:51:26;-19527.53;;;2.81;100.00
68948;BME280;55996;49.546;7.400;2024-03-25T01:53:53;-19521.81;;;2.60;100.00
68948;BME280;55996;49.546;7.400;2024-03-25T01:56:20;-19525.91;;;2.75;100.00
68948;BME280;55996;49.546;7.400;2024-03-25T01:58:47;-19529.84;;;2.90;100.00
68948;BME280;55996;49.546;7.400;2024-03-25T02:01:13;-19523.47;;;2.66;100.00
68948;BME280;55996;49.546;7.400;2024-03-25T02:03:41;-19522.09;;;2.61;100.00
68948;BME280;55996;49.546;7.400;2024-03-25T02:06:12;-19520.06;;;2.53;100.00
68948;BME280;55996;49.546;7.400;2024-03-25T02:08:41;-19516.38;;;2.39;100.00
68948;BME280;55996;49.546;7.400;2024-03-25T02:11:08;-19520.88;;;2.56;100.00
68948;BME280;55996;49.546;7.400;2024-03-25T02:13:35;-19519.09;;;2.49;100.00
68948;BME280;55996;49.546;7.400;2024-03-25T02:16:01;-19521.00;;;2.56;100.00
68948;BME280;55996;49.546;7.400;2024-03-25T02:18:26;-19520.75;;;2.55;100.00
68948;BME280;55996;49.546;7.400;2024-03-25T02:20:52;-19523.06;;;2.64;100.00
68948;BME280;55996;49.546;7.400;2024-03-25T02:23:18;-19525.22;;;2.72;100.00
68948;BME280;55996;49.546;7.400;2024-03-25T02:25:49;-19524.53;;;2.70;100.00
68948;BME280;55996;49.546;7.400;2024-03-25T02:28:15;-19520.88;;;2.56;100.00
68948;BME280;55996;49.546;7.400;2024-03-25T02:30:40;-19519.53;;;2.51;100.00
68948;BME280;55996;49.546;7.400;2024-03-25T02:33:05;-19518.56;;;2.47;100.00
68948;BME280;55996;49.546;7.400;2024-03-25T02:35:31;-19518.84;;;2.48;100.00
68948;BME280;55996;49.546;7.400;2024-03-25T02:37:57;-19518.84;;;2.48;100.00
68948;BME280;55996;49.546;7.400;2024-03-25T02:40:22;-19520.47;;;2.54;100.00
68948;BME280;55996;49.546;7.400;2024-03-25T02:42:48;-19516.66;;;2.40;100.00
68948;BME280;55996;49.546;7.400;2024-03-25T02:45:14;-19513.66;;;2.29;100.00
68948;BME280;55996;49.546;7.400;2024-03-25T02:47:43;-19516.53;;;2.39;100.00
68948;BME280;55996;49.546;7.400;2024-03-25T02:50:08;-19516.13;;;2.38;100.00
68948;BME280;55996;49.546;7.400;2024-03-25T02:52:34;-19512.44;;;2.24;100.00
68948;BME280;55996;49.546;7.400;2024-03-25T02:54:59;-19507.97;;;2.07;100.00
68948;BME280;55996;49.546;7.400;2024-03-25T02:57:24;-19509.72;;;2.14;100.00
68948;BME280;55996;49.546;7.400;2024-03-25T02:59:50;-19512.31;;;2.23;100.00
68948;BME280;55996;49.546;7.400;2024-03-25T03:02:15;-19508.63;;;2.09;100.00
68948;BME280;55996;49.546;7.400;2024-03-25T03:04:41;-19505.78;;;1.99;100.00
68948;BME280;55996;49.546;7.400;2024-03-25T03:07:06;-19504.28;;;1.93;100.00
68948;BME280;55996;49.546;7.400;2024-03-25T03:09:31;-19505.78;;;1.99;100.00
68948;BME280;55996;49.546;7.400;2024-03-25T03:11:57;-19505.09;;;1.96;100.00
68948;BME280;55996;49.546;7.400;2024-03-25T03:14:22;-19499.78;;;1.76;100.00
68948;BME280;55996;49.546;7.400;2024-03-25T03:16:47;-19503.34;;;1.89;100.00
68948;BME280;55996;49.546;7.400;2024-03-25T03:19:14;-19503.19;;;1.89;100.00
68948;BME280;55996;49.546;7.400;2024-03-25T03:21:40;-19503.75;;;1.91;100.00
68948;BME280;55996;49.546;7.400;2024-03-25T03:24:05;-19502.25;;;1.85;100.00
68948;BME280;55996;49.546;7.400;2024-03-25T03:26:31;-19498.16;;;1.70;100.00
68948;BME280;55996;49.546;7.400;2024-03-25T03:28:57;-19500.63;;;1.79;100.00
68948;BME280;55996;49.546;7.400;2024-03-25T03:31:23;-19496.81;;;1.65;100.00
68948;BME280;55996;49.546;7.400;2024-03-25T03:33:49;-19496.25;;;1.63;100.00
68948;BME280;55996;49.546;7.400;2024-03-25T03:36:18;-19493.69;;;1.53;100.00
68948;BME280;55996;49.546;7.400;2024-03-25T03:38:44;-19492.19;;;1.47;100.00
68948;BME280;55996;49.546;7.400;2024-03-25T03:41:10;-19489.19;;;1.36;100.00
68948;BME280;55996;49.546;7.400;2024-03-25T03:43:36;-19491.22;;;1.43;100.00
68948;BME280;55996;49.546;7.400;2024-03-25T03:46:01;-19493.53;;;1.52;100.00
68948;BME280;55996;49.546;7.400;2024-03-25T03:48:27;-19491.50;;;1.44;100.00
68948;BME280;55996;49.546;7.400;2024-03-25T03:50:53;-19489.47;;;1.37;100.00
68948;BME280;55996;49.546;7.400;2024-03-25T03:53:18;-19489.47;;;1.37;100.00
68948;BME280;55996;49.546;7.400;2024-03-25T03:55:57;-19491.63;;;1.45;100.00
68948;BME280;55996;49.546;7.400;2024-03-25T03:58:24;-19492.44;;;1.48;100.00
68948;BME280;55996;49.546;7.400;2024-03-25T04:00:50;-19495.31;;;1.59;100.00
68948;BME280;55996;49.546;7.400;2024-03-25T04:03:17;-19492.19;;;1.47;100.00
68948;BME280;55996;49.546;7.400;2024-03-25T04:05:43;-19491.38;;;1.44;100.00
68948;BME280;55996;49.546;7.400;2024-03-25T04:08:09;-19490.28;;;1.40;100.00
68948;BME280;55996;49.546;7.400;2024-03-25T04:10:35;-19489.88;;;1.38;100.00
68948;BME280;55996;49.546;7.400;2024-03-25T04:13:01;-19487.81;;;1.31;100.00
68948;BME280;55996;49.546;7.400;2024-03-25T04:15:27;-19484.97;;;1.20;100.00
68948;BME280;55996;49.546;7.400;2024-03-25T04:17:52;-19486.88;;;1.27;100.00
68948;BME280;55996;49.546;7.400;2024-03-25T04:20:18;-19483.19;;;1.13;100.00
68948;BME280;55996;49.546;7.400;2024-03-25T04:22:45;-19480.47;;;1.03;100.00
68948;BME280;55996;49.546;7.400;2024-03-25T04:25:11;-19483.59;;;1.15;100.00
68948;BME280;55996;49.546;7.400;2024-03-25T04:27:43;-19479.66;;;1.00;100.00
68948;BME280;55996;49.546;7.400;2024-03-25T04:30:10;-19481.03;;;1.05;100.00
68948;BME280;55996;49.546;7.400;2024-03-25T04:32:37;-19482.09;;;1.09;100.00
68948;BME280;55996;49.546;7.400;2024-03-25T04:35:03;-19477.75;;;0.92;100.00
68948;BME280;55996;49.546;7.400;2024-03-25T04:37:29;-19478.84;;;0.96;100.00
68948;BME280;55996;49.546;7.400;2024-03-25T04:39:55;-19476.53;;;0.88;100.00
68948;BME280;55996;49.546;7.400;2024-03-25T04:42:21;-19472.31;;;0.72;100.00
68948;BME280;55996;49.546;7.400;2024-03-25T04:44:47;-19473.41;;;0.76;100.00
68948;BME280;55996;49.546;7.400;2024-03-25T04:47:12;-19473.41;;;0.76;100.00
68948;BME280;55996;49.546;7.400;2024-03-25T04:49:39;-19474.06;;;0.78;100.00
68948;BME280;55996;49.546;7.400;2024-03-25T04:52:04;-19470.41;;;0.64;100.00
68948;BME280;55996;49.546;7.400;2024-03-25T04:54:30;-19472.72;;;0.73;100.00
68948;BME280;55996;49.546;7.400;2024-03-25T04:56:55;-19473.13;;;0.75;100.00
68948;BME280;55996;49.546;7.400;2024-03-25T04:59:21;-19468.78;;;0.58;100.00
68948;BME280;55996;49.546;7.400;2024-03-25T05:01:47;-19470.41;;;0.64;100.00
68948;BME280;55996;49.546;7.400;2024-03-25T05:04:12;-19471.75;;;0.70;100.00
68948;BME280;55996;49.546;7.400;2024-03-25T05:06:37;-19466.59;;;0.50;100.00
68948;BME280;55996;49.546;7.400;2024-03-25T05:09:03;-19467.94;;;0.55;100.00
68948;BME280;55996;49.546;7.400;2024-03-25T05:11:28;-19469.44;;;0.61;100.00
68948;BME280;55996;49.546;7.400;2024-03-25T05:13:53;-19472.31;;;0.72;100.00
68948;BME280;55996;49.546;7.400;2024-03-25T05:16:18;-19464.00;;;0.40;100.00
68948;BME280;55996;49.546;7.400;2024-03-25T05:18:44;-19466.59;;;0.50;100.00
68948;BME280;55996;49.546;7.400;2024-03-25T05:21:09;-19468.22;;;0.56;100.00
68948;BME280;55996;49.546;7.400;2024-03-25T05:23:35;-19469.19;;;0.60;100.00
68948;BME280;55996;49.546;7.400;2024-03-25T05:26:00;-19467.69;;;0.54;100.00
68948;BME280;55996;49.546;7.400;2024-03-25T05:28:25;-19468.91;;;0.59;100.00
68948;BME280;55996;49.546;7.400;2024-03-25T05:30:51;-19466.59;;;0.50;100.00
68948;BME280;55996;49.546;7.400;2024-03-25T05:33:16;-19466.59;;;0.50;100.00
68948;BME280;55996;49.546;7.400;2024-03-25T05:35:42;-19465.50;;;0.46;100.00
68948;BME280;55996;49.546;7.400;2024-03-25T05:38:07;-19465.22;;;0.45;100.00
68948;BME280;55996;49.546;7.400;2024-03-25T05:40:32;-19462.38;;;0.34;100.00
68948;BME280;55996;49.546;7.400;2024-03-25T05:42:58;-19462.91;;;0.36;100.00
68948;BME280;55996;49.546;7.400;2024-03-25T05:45:23;-19463.31;;;0.38;100.00
68948;BME280;55996;49.546;7.400;2024-03-25T05:47:52;-19465.34;;;0.45;100.00
68948;BME280;55996;49.546;7.400;2024-03-25T05:50:17;-19463.88;;;0.40;100.00
68948;BME280;55996;49.546;7.400;2024-03-25T05:52:43;-19465.50;;;0.46;100.00
68948;BME280;55996;49.546;7.400;2024-03-25T05:55:08;-19465.50;;;0.46;100.00
68948;BME280;55996;49.546;7.400;2024-03-25T05:57:36;-19467.94;;;0.55;100.00
68948;BME280;55996;49.546;7.400;2024-03-25T06:00:02;-19466.88;;;0.51;100.00
68948;BME280;55996;49.546;7.400;2024-03-25T06:02:28;-19465.50;;;0.46;100.00
68948;BME280;55996;49.546;7.400;2024-03-25T06:04:53;-19465.22;;;0.45;100.00
68948;BME280;55996;49.546;7.400;2024-03-25T06:07:19;-19468.09;;;0.56;100.00
68948;BME280;55996;49.546;7.400;2024-03-25T06:09:44;-19469.03;;;0.59;100.00
68948;BME280;55996;49.546;7.400;2024-03-25T06:12:09;-19472.03;;;0.71;100.00
68948;BME280;55996;49.546;7.400;2024-03-25T06:14:35;-19470.94;;;0.67;100.00
68948;BME280;55996;49.546;7.400;2024-03-25T06:17:00;-19474.75;;;0.81;100.00
68948;BME280;55996;49.546;7.400;2024-03-25T06:19:26;-19475.16;;;0.83;100.00
68948;BME280;55996;49.546;7.400;2024-03-25T06:21:51;-19478.03;;;0.93;100.00
68948;BME280;55996;49.546;7.400;2024-03-25T06:24:16;-19477.75;;;0.92;100.00
68948;BME280;55996;49.546;7.400;2024-03-25T06:26:42;-19478.44;;;0.95;100.00
68948;BME280;55996;49.546;7.400;2024-03-25T06:29:07;-19481.97;;;1.08;100.00
68948;BME280;55996;49.546;7.400;2024-03-25T06:31:32;-19485.25;;;1.21;100.00
68948;BME280;55996;49.546;7.400;2024-03-25T06:34:17;-19484.00;;;1.16;100.00
68948;BME280;55996;49.546;7.400;2024-03-25T06:36:48;-19486.72;;;1.26;100.00
68948;BME280;55996;49.546;7.400;2024-03-25T06:39:14;-19487.69;;;1.30;100.00
68948;BME280;55996;49.546;7.400;2024-03-25T06:41:40;-19490.00;;;1.39;100.00
68948;BME280;55996;49.546;7.400;2024-03-25T06:44:05;-19495.03;;;1.58;100.00
68948;BME280;55996;49.546;7.400;2024-03-25T06:46:31;-19497.34;;;1.67;100.00
68948;BME280;55996;49.546;7.400;2024-03-25T06:48:57;-19495.72;;;1.60;100.00
68948;BME280;55996;49.546;7.400;2024-03-25T06:51:22;-19501.97;;;1.84;100.00
68948;BME280;55996;49.546;7.400;2024-03-25T06:53:47;-19502.78;;;1.87;100.00
68948;BME280;55996;49.546;7.400;2024-03-25T06:56:13;-19507.81;;;2.06;100.00
68948;BME280;55996;49.546;7.400;2024-03-25T06:58:38;-19505.25;;;1.97;100.00
68948;BME280;55996;49.546;7.400;2024-03-25T07:01:05;-19508.50;;;2.09;100.00
68948;BME280;55996;49.546;7.400;2024-03-25T07:03:32;-19513.66;;;2.29;100.00
68948;BME280;55996;49.546;7.400;2024-03-25T07:05:58;-19517.75;;;2.44;100.00
68948;BME280;55996;49.546;7.400;2024-03-25T07:08:25;-19522.09;;;2.61;100.00
68948;BME280;55996;49.546;7.400;2024-03-25T07:10:51;-19521.81;;;2.60;100.00
68948;BME280;55996;49.546;7.400;2024-03-25T07:13:17;-19524.00;;;2.68;100.00
68948;BME280;55996;49.546;7.400;2024-03-25T07:15:43;-19532.69;;;3.01;100.00
68948;BME280;55996;49.546;7.400;2024-03-25T07:18:08;-19534.88;;;3.09;100.00
68948;BME280;55996;49.546;7.400;2024-03-25T07:20:36;-19539.50;;;3.27;100.00
68948;BME280;55996;49.546;7.400;2024-03-25T07:23:03;-19545.47;;;3.49;100.00
68948;BME280;55996;49.546;7.400;2024-03-25T07:25:28;-19549.81;;;3.66;100.00
68948;BME280;55996;49.546;7.400;2024-03-25T07:27:54;-19556.06;;;3.90;100.00
68948;BME280;55996;49.546;7.400;2024-03-25T07:30:20;-19562.84;;;4.15;100.00
68948;BME280;55996;49.546;7.400;2024-03-25T07:32:47;-19569.09;;;4.39;100.00
68948;BME280;55996;49.546;7.400;2024-03-25T07:35:13;-19575.06;;;4.62;100.00
68948;BME280;55996;49.546;7.400;2024-03-25T07:37:38;-19578.56;;;4.75;100.00
68948;BME280;55996;49.546;7.400;2024-03-25T07:40:04;-19581.00;;;4.84;100.00
68948;BME280;55996;49.546;7.400;2024-03-25T07:42:30;-19587.53;;;5.09;100.00
68948;BME280;55996;49.546;7.400;2024-03-25T07:44:56;-19592.00;;;5.26;100.00
68948;BME280;55996;49.546;7.400;2024-03-25T07:47:21;-19594.03;;;5.34;100.00
68948;BME280;55996;49.546;7.400;2024-03-25T07:49:47;-19592.53;;;5.28;100.00
68948;BME280;55996;49.546;7.400;2024-03-25T07:52:12;-19589.28;;;5.16;100.00
68948;BME280;55996;49.546;7.400;2024-03-25T07:54:39;-19589.28;;;5.16;100.00
68948;BME280;55996;49.546;7.400;2024-03-25T07:57:04;-19591.59;;;5.25;100.00
68948;BME280;55996;49.546;7.400;2024-03-25T07:59:30;-19592.94;;;5.30;100.00
68948;BME280;55996;49.546;7.400;2024-03-25T08:01:55;-19591.31;;;5.24;100.00
68948;BME280;55996;49.546;7.400;2024-03-25T08:04:20;-19592.00;;;5.26;100.00
68948;BME280;55996;49.546;7.400;2024-03-25T08:06:46;-19590.22;;;5.20;100.00
68948;BME280;55996;49.546;7.400;2024-03-25T08:09:11;-19597.00;;;5.45;100.00
68948;BME280;55996;49.546;7.400;2024-03-25T08:11:39;-19598.63;;;5.52;100.00
68948;BME280;55996;49.546;7.400;2024-03-25T08:14:04;-19599.44;;;5.55;100.00
68948;BME280;55996;49.546;7.400;2024-03-25T08:16:30;-19599.19;;;5.54;100.00
68948;BME280;55996;49.546;7.400;2024-03-25T08:18:55;-19599.31;;;5.54;100.00
68948;BME280;55996;49.546;7.400;2024-03-25T08:21:21;-19599.44;;;5.55;100.00
68948;BME280;55996;49.546;7.400;2024-03-25T08:23:47;-19594.03;;;5.34;100.00
68948;BME280;55996;49.546;7.400;2024-03-25T08:26:13;-19594.97;;;5.38;100.00
68948;BME280;55996;49.546;7.400;2024-03-25T08:28:38;-19599.19;;;5.54;100.00
68948;BME280;55996;49.546;7.400;2024-03-25T08:31:04;-19596.59;;;5.44;100.00
68948;BME280;55996;49.546;7.400;2024-03-25T08:33:29;-19601.88;;;5.64;100.00
68948;BME280;55996;49.546;7.400;2024-03-25T08:35:55;-19600.25;;;5.58;100.00
68948;BME280;55996;49.546;7.400;2024-03-25T08:38:21;-19603.50;;;5.70;100.00
68948;BME280;55996;49.546;7.400;2024-03-25T08:40:46;-19606.75;;;5.82;100.00
68948;BME280;55996;49.546;7.400;2024-03-25T08:43:12;-19611.09;;;5.99;100.00
68948;BME280;55996;49.546;7.400;2024-03-25T08:45:37;-19605.94;;;5.79;100.00
68948;BME280;55996;49.546;7.400;2024-03-25T08:48:03;-19609.88;;;5.94;100.00
68948;BME280;55996;49.546;7.400;2024-03-25T08:50:28;-19613.69;;;6.09;100.00
68948;BME280;55996;49.546;7.400;2024-03-25T08:52:54;-19616.38;;;6.19;100.00
68948;BME280;55996;49.546;7.400;2024-03-25T08:55:19;-19612.72;;;6.05;100.00
68948;BME280;55996;49.546;7.400;2024-03-25T08:57:45;-19617.34;;;6.23;100.00
68948;BME280;55996;49.546;7.400;2024-03-25T09:00:11;-19620.03;;;6.33;100.00
68948;BME280;55996;49.546;7.400;2024-03-25T09:02:37;-19621.66;;;6.39;100.00
68948;BME280;55996;49.546;7.400;2024-03-25T09:05:03;-19625.03;;;6.52;100.00
68948;BME280;55996;49.546;7.400;2024-03-25T09:07:31;-19627.75;;;6.62;100.00
68948;BME280;55996;49.546;7.400;2024-03-25T09:09:56;-19623.69;;;6.47;100.00
68948;BME280;55996;49.546;7.400;2024-03-25T09:12:40;-19618.81;;;6.28;100.00
68948;BME280;55996;49.546;7.400;2024-03-25T09:15:06;-19624.91;;;6.52;100.00
68948;BME280;55996;49.546;7.400;2024-03-25T09:17:31;-19623.56;;;6.46;100.00
68948;BME280;55996;49.546;7.400;2024-03-25T09:19:57;-19620.59;;;6.35;100.00
68948;BME280;55996;49.546;7.400;2024-03-25T09:22:22;-19626.00;;;6.56;100.00
68948;BME280;55996;49.546;7.400;2024-03-25T09:24:48;-19636.28;;;6.95;100.00
68948;BME280;55996;49.546;7.400;2024-03-25T09:27:15;-19641.69;;;7.16;100.00
68948;BME280;55996;49.546;7.400;2024-03-25T09:29:41;-19642.09;;;7.17;100.00
68948;BME280;55996;49.546;7.400;2024-03-25T09:32:07;-19641.81;;;7.16;100.00
68948;BME280;55996;49.546;7.400;2024-03-25T09:34:33;-19652.22;;;7.56;100.00
68948;BME280;55996;49.546;7.400;2024-03-25T09:36:58;-19657.38;;;7.75;100.00
68948;BME280;55996;49.546;7.400;2024-03-25T09:39:23;-19666.69;;;8.11;100.00
68948;BME280;55996;49.546;7.400;2024-03-25T09:41:50;-19661.28;;;7.90;100.00
68948;BME280;55996;49.546;7.400;2024-03-25T09:44:22;-19664.94;;;8.04;100.00
68948;BME280;55996;49.546;7.400;2024-03-25T09:46:49;-19668.84;;;8.19;100.00
68948;BME280;55996;49.546;7.400;2024-03-25T09:49:15;-19679.25;;;8.59;100.00
68948;BME280;55996;49.546;7.400;2024-03-25T09:51:41;-19675.47;;;8.45;100.00
68948;BME280;55996;49.546;7.400;2024-03-25T09:54:07;-19681.81;;;8.69;100.00
68948;BME280;55996;49.546;7.400;2024-03-25T09:56:32;-19684.41;;;8.79;100.00
68948;BME280;55996;49.546;7.400;2024-03-25T09:58:59;-19695.72;;;9.22;100.00
68948;BME280;55996;49.546;7.400;2024-03-25T10:01:24;-19702.22;;;9.47;100.00
68948;BME280;55996;49.546;7.400;2024-03-25T10:03:50;-19687.09;;;8.89;100.00
68948;BME280;55996;49.546;7.400;2024-03-25T10:06:16;-19695.59;;;9.22;100.00
68948;BME280;55996;49.546;7.400;2024-03-25T10:08:41;-19709.09;;;9.73;100.00
68948;BME280;55996;49.546;7.400;2024-03-25T10:11:07;-19713.25;;;9.89;100.00
68948;BME280;55996;49.546;7.400;2024-03-25T10:13:32;-19715.16;;;9.96;94.65
68948;BME280;55996;49.546;7.400;2024-03-25T10:15:57;-19719.88;;;10.14;89.93
68948;BME280;55996;49.546;7.400;2024-03-25T10:18:23;-19717.56;;;10.06;91.89
68948;BME280;55996;49.546;7.400;2024-03-25T10:20:52;-19729.97;;;10.53;91.72
68948;BME280;55996;49.546;7.400;2024-03-25T10:23:25;-19741.03;;;10.95;88.52
68948;BME280;55996;49.546;7.400;2024-03-25T10:25:54;-19747.91;;;11.22;82.61
68948;BME280;55996;49.546;7.400;2024-03-25T10:28:19;-19752.06;;;11.38;72.52
68948;BME280;55996;49.546;7.400;2024-03-25T10:30:45;-19722.69;;;10.25;79.54
68948;BME280;55996;49.546;7.400;2024-03-25T10:33:11;-19722.97;;;10.26;82.15
68948;BME280;55996;49.546;7.400;2024-03-25T10:35:37;-19737.94;;;10.84;74.44
68948;BME280;55996;49.546;7.400;2024-03-25T10:38:10;-19730.25;;;10.54;79.19
68948;BME280;55996;49.546;7.400;2024-03-25T10:40:37;-19747.91;;;11.22;79.81
68948;BME280;55996;49.546;7.400;2024-03-25T10:43:11;-19765.25;;;11.88;70.59
68948;BME280;55996;49.546;7.400;2024-03-25T10:45:40;-19764.97;;;11.87;69.33
68948;BME280;55996;49.546;7.400;2024-03-25T10:50:43;-19760.41;;;11.70;68.01
68948;BME280;55996;49.546;7.400;2024-03-25T10:53:10;-19774.94;;;12.25;69.77
68948;BME280;55996;49.546;7.400;2024-03-25T10:55:36;-19776.81;;;12.33;62.62
68948;BME280;55996;49.546;7.400;2024-03-25T10:58:04;-19788.50;;;12.78;65.93
68948;BME280;55996;49.546;7.400;2024-03-25T11:00:30;-19796.72;;;13.09;58.05
68948;BME280;55996;49.546;7.400;2024-03-25T11:02:55;-19789.44;;;12.81;54.55
68948;BME280;55996;49.546;7.400;2024-03-25T11:05:22;-19783.81;;;12.59;59.17
68948;BME280;55996;49.546;7.400;2024-03-25T11:07:48;-19787.84;;;12.75;62.16
68948;BME280;55996;49.546;7.400;2024-03-25T11:10:13;-19783.41;;;12.58;59.36
68948;BME280;55996;49.546;7.400;2024-03-25T11:12:41;-19789.72;;;12.82;61.26
68948;BME280;55996;49.546;7.400;2024-03-25T11:15:07;-19767.94;;;11.99;61.05
68948;BME280;55996;49.546;7.400;2024-03-25T11:17:34;-19778.44;;;12.39;57.03
68948;BME280;55996;49.546;7.400;2024-03-25T11:20:13;-19788.38;;;12.77;60.59
68948;BME280;55996;49.546;7.400;2024-03-25T11:22:51;-19793.47;;;12.97;59.17
68948;BME280;55996;49.546;7.400;2024-03-25T11:25:19;-19789.19;;;12.80;56.73
68948;BME280;55996;49.546;7.400;2024-03-25T11:27:46;-19795.38;;;13.04;52.55
68948;BME280;55996;49.546;7.400;2024-03-25T11:30:12;-19801.53;;;13.28;52.61
68948;BME280;55996;49.546;7.400;2024-03-25T11:32:54;-19794.03;;;12.99;53.79
68948;BME280;55996;49.546;7.400;2024-03-25T11:35:20;-19798.72;;;13.17;53.65
68948;BME280;55996;49.546;7.400;2024-03-25T11:37:46;-19775.47;;;12.27;56.64
68948;BME280;55996;49.546;7.400;2024-03-25T11:40:13;-19784.88;;;12.64;56.70
68948;BME280;55996;49.546;7.400;2024-03-25T11:42:42;-19803.44;;;13.35;56.61
68948;BME280;55996;49.546;7.400;2024-03-25T11:45:19;-19801.53;;;13.28;53.84
68948;BME280;55996;49.546;7.400;2024-03-25T11:47:48;-19778.69;;;12.40;51.95
68948;BME280;55996;49.546;7.400;2024-03-25T11:50:15;-19785.69;;;12.67;53.05
68948;BME280;55996;49.546;7.400;2024-03-25T11:52:41;-19784.09;;;12.61;50.50
68948;BME280;55996;49.546;7.400;2024-03-25T11:55:07;-19764.03;;;11.84;51.04
68948;BME280;55996;49.546;7.400;2024-03-25T11:57:37;-19763.91;;;11.83;51.83
68948;BME280;55996;49.546;7.400;2024-03-25T12:00:04;-19775.22;;;12.26;54.07
68948;BME280;55996;49.546;7.400;2024-03-25T12:02:36;-19805.84;;;13.44;52.83
68948;BME280;55996;49.546;7.400;2024-03-25T12:05:03;-19811.75;;;13.67;51.49
68948;BME280;55996;49.546;7.400;2024-03-25T12:07:28;-19814.16;;;13.76;48.31
68948;BME280;55996;49.546;7.400;2024-03-25T12:09:54;-19800.72;;;13.24;50.92
68948;BME280;55996;49.546;7.400;2024-03-25T12:12:38;-19788.25;;;12.77;52.50
68948;BME280;55996;49.546;7.400;2024-03-25T12:15:08;-19790.81;;;12.86;52.73
68948;BME280;55996;49.546;7.400;2024-03-25T12:17:34;-19784.09;;;12.61;49.15
68948;BME280;55996;49.546;7.400;2024-03-25T12:20:07;-19780.59;;;12.47;54.25
68948;BME280;55996;49.546;7.400;2024-03-25T12:22:34;-19787.97;;;12.75;53.91
68948;BME280;55996;49.546;7.400;2024-03-25T12:25:01;-19808.53;;;13.54;52.40
68948;BME280;55996;49.546;7.400;2024-03-25T12:27:28;-19809.06;;;13.56;49.77
68948;BME280;55996;49.546;7.400;2024-03-25T12:29:58;-19787.31;;;12.73;49.80
68948;BME280;55996;49.546;7.400;2024-03-25T12:34:58;-19760.13;;;11.69;49.83
68948;BME280;55996;49.546;7.400;2024-03-25T12:37:26;-19754.22;;;11.46;50.29
68948;BME280;55996;49.546;7.400;2024-03-25T12:39:51;-19768.34;;;12.00;52.02
68948;BME280;55996;49.546;7.400;2024-03-25T12:42:17;-19765.66;;;11.90;50.15
68948;BME280;55996;49.546;7.400;2024-03-25T12:44:43;-19756.09;;;11.53;51.86
68948;BME280;55996;49.546;7.400;2024-03-25T12:47:09;-19763.38;;;11.81;51.96
68948;BME280;55996;49.546;7.400;2024-03-25T12:49:34;-19760.69;;;11.71;49.69
68948;BME280;55996;49.546;7.400;2024-03-25T12:51:59;-19755.69;;;11.52;50.49